createdAt,value
2022-11-03T00:02:23.691Z,-0.038
2022-11-03T00:07:36.000Z,-0.044
2022-11-03T00:12:48.883Z,-0.013
2022-11-03T00:23:11.309Z,-0.039
2022-11-03T00:28:24.168Z,-0.019
2022-11-03T00:33:36.930Z,-0.035
2022-11-03T00:43:58.777Z,-0.018
2022-11-03T00:49:11.460Z,-0.021
2022-11-03T00:54:24.052Z,-0.049
2022-11-03T00:59:36.174Z,-0.025
2022-11-03T01:04:48.143Z,-0.013
2022-11-03T01:10:01.319Z,-0.017
2022-11-03T01:15:13.813Z,-0.048
2022-11-03T01:20:25.878Z,-0.044
2022-11-03T01:25:37.990Z,-0.036
2022-11-03T01:36:01.024Z,-0.041
2022-11-03T01:41:13.001Z,-0.032
2022-11-03T01:46:25.792Z,-0.019
2022-11-03T01:56:48.153Z,-0.042
2022-11-03T02:02:01.116Z,-0.016
2022-11-03T02:12:24.026Z,-0.049
2022-11-03T02:17:36.869Z,-0.011
2022-11-03T02:27:59.495Z,-0.035
2022-11-03T02:33:11.576Z,-0.008
2022-11-03T02:38:24.374Z,-0.025
2022-11-03T02:48:46.877Z,-0.037
2022-11-03T02:53:59.603Z,-0.016
2022-11-03T02:59:12.393Z,-0.044
2022-11-03T03:04:24.458Z,-0.027
2022-11-03T03:09:36.546Z,0.003
2022-11-03T03:14:49.265Z,-0.023
2022-11-03T03:25:11.819Z,-0.039
2022-11-03T03:30:23.918Z,-0.012
2022-11-03T03:35:36.662Z,-0.027
2022-11-03T03:40:49.417Z,-0.044
2022-11-03T03:46:01.424Z,-0.034
2022-11-03T03:51:13.585Z,-0.026
2022-11-03T03:56:27.028Z,-0.044
2022-11-03T04:06:49.785Z,-0.039
2022-11-03T04:12:02.558Z,-0.02
2022-11-03T04:22:24.823Z,-0.038
2022-11-03T04:27:36.816Z,-0.008
2022-11-03T04:32:49.793Z,-0.011
2022-11-03T04:38:02.325Z,-0.046
2022-11-03T04:43:14.855Z,-0.037
2022-11-03T04:48:27.674Z,-0.016
2022-11-03T04:53:40.363Z,-0.034
2022-11-03T04:58:52.361Z,-0.025
2022-11-03T05:04:04.413Z,0.008
2022-11-03T05:09:17.223Z,-0.013
2022-11-03T05:14:29.881Z,-0.043
2022-11-03T05:19:41.994Z,-0.028
2022-11-03T05:24:54.055Z,-0.005
2022-11-03T05:30:06.886Z,-0.011
2022-11-03T05:40:29.513Z,-0.027
2022-11-03T05:45:41.576Z,0.002
2022-11-03T05:50:54.303Z,-0.02
2022-11-03T05:56:06.925Z,-0.047
2022-11-03T06:01:19.704Z,-0.031
2022-11-03T06:06:32.518Z,-0.025
2022-11-03T06:11:44.380Z,0.01
2022-11-03T06:16:57.187Z,-0.046
2022-11-03T06:22:09.304Z,-0.027
2022-11-03T06:27:21.313Z,0.019
2022-11-03T06:32:33.446Z,-0.003
2022-11-03T06:37:46.332Z,-0.015
2022-11-03T06:42:59.163Z,-0.043
2022-11-03T06:48:12.066Z,-0.027
2022-11-03T06:53:25.025Z,-0.037
2022-11-03T06:58:37.825Z,-0.03
2022-11-03T07:03:50.703Z,-0.03
2022-11-03T07:09:03.695Z,-0.038
2022-11-03T07:14:16.542Z,-0.036
2022-11-03T07:19:29.307Z,-0.017
2022-11-03T07:24:41.452Z,0
2022-11-03T07:29:53.681Z,0.022
2022-11-03T07:35:05.858Z,0.009
2022-11-03T07:40:18.072Z,0.019
2022-11-03T07:45:30.341Z,0.042
2022-11-03T07:50:42.557Z,0.03
2022-11-03T07:55:55.079Z,0.049
2022-11-03T08:01:07.652Z,0.024
2022-11-03T08:06:20.194Z,0.055
2022-11-03T08:11:32.581Z,0.053
2022-11-03T08:16:44.814Z,0.048
2022-11-03T08:21:57.015Z,0.073
2022-11-03T08:27:09.341Z,0.055
2022-11-03T08:32:23.136Z,0.053
2022-11-03T08:37:35.441Z,0.054
2022-11-03T08:42:47.689Z,0.042
2022-11-03T08:47:59.806Z,0.041
2022-11-03T08:53:11.948Z,0.051
2022-11-03T08:58:24.165Z,0.067
2022-11-03T09:03:36.391Z,0.065
2022-11-03T09:15:34.335Z,0.057
2022-11-03T09:20:45.996Z,0.052
2022-11-03T09:25:58.259Z,0.043
2022-11-03T09:31:10.585Z,0.047
2022-11-03T09:36:22.927Z,0.079
2022-11-03T09:41:55.653Z,0.067
2022-11-03T09:47:07.515Z,0.079
2022-11-03T09:52:19.806Z,-0.011
2022-11-03T09:57:32.171Z,0.074
2022-11-03T10:02:44.586Z,0.015
2022-11-03T10:07:56.914Z,0.077
2022-11-03T10:13:09.628Z,0.043
2022-11-03T10:18:22.075Z,0.066
2022-11-03T10:23:34.587Z,0.082
2022-11-03T10:28:46.977Z,0.054
2022-11-03T10:33:59.318Z,0.069
2022-11-03T10:39:11.487Z,0.053
2022-11-03T10:44:23.459Z,0.033
2022-11-03T10:49:39.174Z,0.034
2022-11-03T10:54:54.847Z,0.031
2022-11-03T11:00:06.892Z,0.062
2022-11-03T11:05:19.000Z,0.036
2022-11-03T11:10:31.241Z,0.076
2022-11-03T11:15:43.305Z,0.051
2022-11-03T11:20:55.510Z,-0.007
2022-11-03T11:26:07.788Z,0.011
2022-11-03T11:31:19.814Z,0.025
2022-11-03T11:36:31.708Z,0.021
2022-11-03T11:41:43.559Z,0.03
2022-11-03T11:46:56.272Z,0.054
2022-11-03T11:52:08.429Z,0.335
2022-11-03T11:57:32.383Z,0.239
2022-11-03T12:02:45.742Z,0.232
2022-11-03T12:07:58.894Z,0.43
2022-11-03T12:13:13.303Z,0.071
2022-11-03T12:28:44.248Z,0.01
2022-11-03T12:33:56.238Z,0.425
2022-11-03T12:39:11.260Z,0.322
2022-11-03T12:44:25.786Z,0.218
2022-11-03T12:49:39.489Z,0.008
2022-11-03T13:05:11.020Z,0.04
2022-11-03T13:10:23.657Z,0.16
2022-11-03T13:15:36.937Z,0.24
2022-11-03T13:20:50.591Z,0.188
2022-11-03T13:36:23.763Z,0.163
2022-11-03T13:41:36.185Z,0.154
2022-11-03T13:46:48.340Z,0.082
2022-11-03T13:52:00.051Z,0.023
2022-11-03T14:23:01.989Z,-0.032
2022-11-03T14:28:17.066Z,-0.006
2022-11-03T14:33:35.557Z,0.006
2022-11-03T14:38:50.064Z,-0.032
2022-11-03T14:44:02.008Z,0.021
2022-11-03T14:49:14.231Z,0.031
2022-11-03T14:54:26.770Z,0.014
2022-11-03T14:59:39.353Z,0.026
2022-11-03T15:04:51.782Z,0.012
2022-11-03T15:10:04.159Z,0.011
2022-11-03T15:15:16.930Z,0.007
2022-11-03T15:20:29.278Z,0
2022-11-03T15:25:41.706Z,-0.007
2022-11-03T15:30:53.969Z,-0.022
2022-11-03T15:36:05.955Z,-0.003
2022-11-03T15:41:18.554Z,0.007
2022-11-03T15:46:31.118Z,-0.006
2022-11-03T15:51:43.507Z,-0.003
2022-11-03T15:56:55.704Z,-0.031
2022-11-03T16:02:13.910Z,0.02
2022-11-03T16:07:49.776Z,0.01
2022-11-03T16:18:29.323Z,0
2022-11-03T16:23:41.419Z,0.007
2022-11-03T16:28:53.660Z,0.01
2022-11-03T16:34:06.115Z,-0.001
2022-11-03T16:39:18.190Z,-0.025
2022-11-03T16:44:30.541Z,0.032
2022-11-03T16:49:43.052Z,0.022
2022-11-03T16:54:55.461Z,0.02
2022-11-03T17:00:07.443Z,0
2022-11-03T17:05:19.824Z,0.011
2022-11-03T17:10:32.166Z,0.005
2022-11-03T17:15:44.521Z,0.014
2022-11-03T17:20:57.094Z,0.003
2022-11-03T17:26:09.282Z,0.012
2022-11-03T17:31:22.404Z,0.014
2022-11-03T17:36:34.567Z,0.015
2022-11-03T17:41:47.032Z,0.01
2022-11-03T17:46:59.094Z,0.013
2022-11-03T17:52:11.678Z,0.008
2022-11-03T17:57:24.082Z,-0.01
2022-11-03T18:02:36.569Z,0.025
2022-11-03T18:13:10.241Z,0.023
2022-11-03T18:18:22.503Z,0.027
2022-11-03T18:23:34.858Z,0.019
2022-11-03T18:28:47.167Z,0.018
2022-11-03T18:33:59.241Z,0.019
2022-11-03T18:39:11.153Z,0.011
2022-11-03T18:44:23.239Z,0.026
2022-11-03T18:49:35.359Z,0.02
2022-11-03T18:54:47.438Z,0.022
2022-11-03T18:59:59.646Z,0.027
2022-11-03T19:05:12.491Z,0.013
2022-11-03T19:10:25.182Z,0.019
2022-11-03T19:15:37.047Z,0.014
2022-11-03T19:20:49.025Z,0.031
2022-11-03T19:26:01.083Z,0.013
2022-11-03T19:31:13.536Z,0.025
2022-11-03T19:36:25.444Z,0.013
2022-11-03T19:41:37.595Z,0.009
2022-11-03T19:46:49.577Z,0.024
2022-11-03T19:52:01.408Z,0.029
2022-11-03T19:57:13.291Z,0.025
2022-11-03T20:02:25.520Z,0.025
2022-11-03T20:07:37.767Z,0.017
2022-11-03T20:12:49.937Z,0.03
2022-11-03T20:18:01.921Z,0.026
2022-11-03T20:23:13.704Z,0.025
2022-11-03T20:28:25.865Z,0.015
2022-11-03T20:38:59.023Z,0.02
2022-11-03T20:44:11.350Z,0.02
2022-11-03T20:49:23.520Z,0.021
2022-11-03T20:54:35.552Z,0.011
2022-11-03T20:59:47.282Z,0.012
2022-11-03T21:04:59.333Z,0.021
2022-11-03T21:10:11.375Z,0.019
2022-11-03T21:15:34.629Z,0
2022-11-03T21:20:46.278Z,0.014
2022-11-03T21:25:57.865Z,-0.022
2022-11-03T21:31:09.862Z,0.032
2022-11-03T21:36:21.793Z,0.015
2022-11-03T21:41:33.814Z,0.019
2022-11-03T21:46:45.685Z,0.013
2022-11-03T21:51:57.613Z,0.015
2022-11-03T21:57:09.531Z,0.023
2022-11-03T22:02:21.621Z,-0.007
2022-11-03T22:07:34.286Z,0.034
2022-11-03T22:12:49.650Z,0.024
2022-11-03T22:18:02.760Z,-0.004
2022-11-03T22:23:14.628Z,0.041
2022-11-03T22:28:26.630Z,0.003
2022-11-03T22:33:38.865Z,0.039
2022-11-03T22:38:51.023Z,0.028
2022-11-03T22:44:03.606Z,0.085
2022-11-03T22:49:26.292Z,0.021
2022-11-03T22:54:38.437Z,0.007
2022-11-03T22:59:51.249Z,-0.048
2022-11-03T23:15:23.082Z,0.008
2022-11-03T23:20:35.415Z,0.011
2022-11-03T23:25:47.744Z,-0.038
2022-11-03T23:41:21.261Z,-0.038
